Latest Coastal Weather Observations for Hamilton Island

IDQ60701

Issued at 10:21 am EST Thursday 20 September 2018 (issued every 10 minutes, with the page automatically refreshed every 10 minutes)

About coastal observations | Map of coastal stations | Coastal observations for QLD | Marine services | Other Formats
Station Details ID: 033106 Name: HAMILTON ISLAND AIRPORT Lat: -20.37 Lon: 148.95 Height: 58.66 m
Data from the previous 72 hours. | See also: Recent months at Hamilton Island
Date/Time
EST
Wind Sea
Height
m
Swell Vis
km
Cloud Weather Temp
°C
Press
hPa
Rain since
9am
mm
Dir  Spd
kts
Gust
kts
Height
m
Period
s
Dir
20/10:00am SSE 5 7 - - - - 10 - - 23.8 1016.8 0.0
20/09:30am SSE 4 6 - - - - 10 - - 23.6 1016.8 0.0
20/09:00am SE 5 6 - - - - 10 Partly cloudy - 23.4 1016.5 0.0
20/08:30am SE 5 7 - - - - 10 Partly cloudy - 23.1 1016.4 0.0
20/08:00am S 4 6 - - - - 10 Partly cloudy - 22.9 1016.3 0.0
20/07:30am SW 4 6 - - - - 10 - - 21.3 1016.1 0.0
20/07:00am CALM 0 0 - - - - 10 - - 20.6 1015.9 0.0
20/06:30am CALM 0 2 - - - - 10 - - 20.1 1015.5 0.0
20/06:00am CALM 0 0 - - - - 10 - - 19.6 1015.2 0.0
20/05:30am CALM 0 0 - - - - 10 - - 19.6 1015.0 0.0
20/05:00am NW 3 4 - - - - 10 - - 19.8 1014.6 0.0
20/04:30am NW 4 5 - - - - 10 Partly cloudy - 19.7 1014.4 0.0
20/04:00am NW 3 4 - - - - 10 Partly cloudy - 19.9 1014.3 0.0
20/03:30am NW 3 3 - - - - 10 - - 19.9 1014.3 0.0
20/03:00am NW 3 4 - - - - 10 Partly cloudy - 20.0 1014.5 0.0
20/02:30am NW 4 5 - - - - 10 - - 20.1 1014.7 0.0
20/02:00am CALM 0 0 - - - - 10 - - 20.4 1015.1 0.0
20/01:30am N 2 4 - - - - 10 Partly cloudy - 20.8 1015.4 0.0
20/01:00am ENE 4 5 - - - - 10 Partly cloudy - 21.0 1015.7 0.0
20/12:30am ENE 6 8 - - - - 10 Partly cloudy - 21.0 1016.2 0.0
20/12:00am ENE 7 8 - - - - 10 - - 21.1 1016.4 0.0
 
Date/Time
EST
Wind Sea
Height
m
Swell Vis
km
Cloud Weather Temp
°C
Press
hPa
Rain since
9am
mm
Dir  Spd
kts
Gust
kts
Height
m
Period
s
Dir
19/11:30pm E 9 10 - - - - 10 - - 21.4 1016.6 0.0
19/11:00pm ESE 9 11 - - - - 10 - - 21.5 1016.8 0.0
19/10:30pm ESE 9 11 - - - - 10 - - 21.5 1016.7 0.0
19/10:00pm ESE 11 13 - - - - 10 - - 21.6 1016.7 0.0
19/09:30pm ESE 11 14 - - - - 10 - - 21.6 1016.7 0.0
19/09:00pm ESE 10 12 - - - - 10 - - 21.5 1016.4 0.0
19/08:30pm ESE 11 13 - - - - 10 - - 21.7 1016.2 0.0
19/08:00pm ESE 11 14 - - - - 10 - - 21.7 1015.9 0.0
19/07:30pm ESE 11 14 - - - - 10 - - 21.8 1015.6 0.0
19/07:00pm ESE 10 12 - - - - 10 - - 21.7 1015.4 0.0
19/06:30pm ESE 11 13 - - - - 10 - - 21.8 1015.2 0.0
19/06:00pm ESE 10 12 - - - - 10 - - 21.8 1014.8 0.0
19/05:30pm ESE 10 11 - - - - 10 - - 22.1 1014.7 0.0
19/05:00pm E 10 12 - - - - 10 - - 22.3 1014.4 0.0
19/04:30pm ESE 9 11 - - - - 10 - - 22.7 1014.3 0.0
19/04:00pm ESE 8 11 - - - - 10 - - 23.0 1014.2 0.0
19/03:30pm ESE 9 12 - - - - 10 - - 23.3 1014.2 0.0
19/03:00pm ESE 9 11 - - - - 10 - - 23.4 1014.5 0.0
19/02:30pm E 8 11 - - - - 10 - - 23.5 1014.9 0.0
19/02:00pm ESE 9 11 - - - - 10 - - 24.1 1015.3 0.0
19/01:30pm ESE 9 11 - - - - 10 - - 24.2 1015.6 0.0
19/01:00pm E 9 11 - - - - 10 - - 24.1 1016.0 0.0
19/12:30pm E 11 13 - - - - 10 - - 24.1 1016.3 0.0
19/12:00pm E 11 14 - - - - 10 Mostly clear - 24.2 1016.8 0.0
19/11:30am ESE 11 13 - - - - 10 - - 24.8 1017.3 0.0
19/11:00am ESE 10 12 - - - - 10 - - 24.4 1017.8 0.0
19/10:30am SE 11 13 - - - - 10 - - 24.0 1018.3 0.0
19/10:00am ESE 11 14 - - - - 10 - - 24.1 1018.6 0.0
19/09:30am ESE 12 14 - - - - 10 Partly cloudy - 24.2 1018.8 0.0
19/09:00am ESE 11 13 - - - - 10 - - 24.1 1019.0 0.0
19/08:30am ESE 12 14 - - - - 10 - - 23.3 1018.9 0.0
19/08:00am ESE 13 15 - - - - 10 - - 23.0 1018.5 0.0
19/07:30am ESE 14 16 - - - - 10 - - 22.6 1018.1 0.0
19/07:00am ESE 13 15 - - - - 10 - - 22.2 1017.9 0.0
19/06:30am ESE 15 18 - - - - 10 - - 21.7 1017.5 0.0
19/06:00am ESE 15 18 - - - - 10 - - 21.3 1017.1 0.0
19/05:30am ESE 15 19 - - - - 10 - - 21.4 1016.8 0.0
19/05:00am ESE 17 19 - - - - 10 Partly cloudy - 21.5 1016.6 0.0
19/04:30am E 15 17 - - - - 10 Partly cloudy - 21.5 1016.3 0.0
19/04:00am E 15 18 - - - - 10 Partly cloudy - 21.4 1016.2 0.0
19/03:30am ESE 16 19 - - - - 10 Partly cloudy - 21.5 1016.2 0.0
19/03:00am E 14 16 - - - - 10 Mostly clear - 21.4 1016.2 0.0
19/02:30am E 15 19 - - - - 10 Partly cloudy - 21.4 1016.4 0.0
19/02:00am E 17 19 - - - - 10 Partly cloudy - 21.5 1016.5 0.0
19/01:30am E 18 21 - - - - 10 Partly cloudy - 21.7 1016.7 0.0
19/01:00am ESE 15 19 - - - - 10 Partly cloudy - 21.7 1017.0 0.0
19/12:30am ESE 17 20 - - - - 10 Partly cloudy - 21.6 1017.3 0.0
19/12:00am ESE 17 20 - - - - 10 Cloudy - 21.9 1017.5 0.0
 
Date/Time
EST
Wind Sea
Height
m
Swell Vis
km
Cloud Weather Temp
°C
Press
hPa
Rain since
9am
mm
Dir  Spd
kts
Gust
kts
Height
m
Period
s
Dir
18/11:30pm ESE 17 20 - - - - 10 Partly cloudy - 21.9 1017.5 0.0
18/11:00pm ESE 19 22 - - - - 10 Partly cloudy - 22.0 1017.5 0.0
18/10:30pm E 21 24 - - - - 10 Partly cloudy - 22.0 1017.3 0.0
18/10:00pm ESE 19 21 - - - - 10 Partly cloudy - 21.9 1017.5 0.0
18/09:30pm ESE 19 22 - - - - 10 Partly cloudy - 22.3 1017.6 0.0
18/09:00pm ESE 19 22 - - - - 10 Mostly clear - 22.2 1017.2 0.0
18/08:30pm ESE 20 23 - - - - 10 Partly cloudy - 22.1 1017.0 0.0
18/08:00pm ESE 20 23 - - - - 10 Partly cloudy - 22.4 1016.9 0.0
18/07:30pm ESE 19 22 - - - - 10 - - 22.3 1016.6 0.0
18/07:00pm ESE 20 23 - - - - 10 Partly cloudy - 22.3 1016.5 0.0
18/06:30pm ESE 20 23 - - - - 10 Partly cloudy - 22.4 1016.6 0.0
18/06:00pm ESE 20 23 - - - - 10 Cloudy - 22.4 1016.3 0.0
18/05:30pm E 21 24 - - - - 10 Partly cloudy - 22.5 1016.2 0.0
18/05:00pm ESE 21 24 - - - - 10 Partly cloudy - 22.8 1016.0 0.0
18/04:30pm ESE 21 24 - - - - 10 Partly cloudy - 23.0 1016.3 0.0
18/04:00pm ESE 20 23 - - - - 10 Partly cloudy - 23.3 1016.2 0.0
18/03:30pm ESE 19 22 - - - - 10 Partly cloudy - 23.5 1016.2 0.0
18/03:00pm E 16 21 - - - - 10 Mostly cloudy - 23.1 1016.1 0.0
18/02:30pm ENE 13 19 - - - - 10 Partly cloudy - 23.6 1016.5 0.0
18/02:00pm E 22 29 - - - - 10 Partly cloudy - 22.7 1016.8 0.0
18/01:47pm E 21 31 - - - - 10 Partly cloudy - 23.1 1016.9 0.0
18/01:30pm E 17 21 - - - - 10 Partly cloudy - 23.9 1017.1 0.0
18/01:00pm ESE 20 23 - - - - 10 Partly cloudy - 23.5 1017.6 0.0
18/12:30pm ESE 17 19 - - - - 10 Partly cloudy - 24.4 1018.3 0.0
18/12:00pm ESE 17 19 - - - - 10 Partly cloudy - 24.1 1018.7 0.0
18/11:30am ESE 18 20 - - - - 10 Partly cloudy - 24.8 1019.3 0.0
18/11:00am ESE 19 21 - - - - 10 Partly cloudy - 24.8 1019.6 0.0
18/10:30am ESE 17 20 - - - - 10 Partly cloudy - 24.7 1019.9 0.0
18/10:00am ESE 16 20 - - - - 10 Partly cloudy - 24.4 1019.9 0.0
18/09:30am ESE 13 16 - - - - 10 Partly cloudy - 25.1 1020.0 0.0
18/09:00am ESE 12 15 - - - - 10 - - 24.3 1020.0 0.0
18/08:30am ESE 15 17 - - - - 10 Partly cloudy - 24.0 1019.8 0.0
18/08:00am ESE 15 20 - - - - 10 Partly cloudy - 23.0 1019.4 0.0
18/07:30am ESE 15 16 - - - - 10 Partly cloudy - 22.7 1019.1 0.0
18/07:04am ESE 15 17 - - - - 10 Partly cloudy - 22.6 1018.8 0.0
18/07:00am ESE 15 17 - - - - 10 Partly cloudy - 22.9 1018.8 0.0
18/06:30am ESE 16 19 - - - - 10 Partly cloudy - 22.1 1018.2 0.0
18/06:04am ESE 16 19 - - - - 10 Partly cloudy - 22.0 1017.9 0.0
18/06:00am ESE 16 19 - - - - 10 Mostly cloudy - 22.0 1017.9 0.0
18/05:30am ESE 18 21 - - - - 10 Partly cloudy - 22.1 1017.5 0.0
18/05:00am E 17 21 - - - - 10 Partly cloudy - 22.6 1017.4 0.0
18/04:30am E 15 18 - - - - 10 Partly cloudy - 22.2 1017.3 0.0
18/04:20am ESE 15 18 - - - - 10 Partly cloudy - 22.1 1017.2 0.0
18/04:00am ESE 16 19 - - - - 10 Cloudy - 22.3 1017.1 0.0
18/03:30am ESE 16 18 - - - - 10 Partly cloudy - 22.2 1016.9 0.0
18/03:29am ESE 16 18 - - - - 10 Partly cloudy - 22.1 1016.9 0.0
18/03:00am ESE 16 19 - - - - 10 Mostly clear - 22.0 1016.9 0.0
18/02:30am E 18 21 - - - - 10 Partly cloudy - 22.1 1017.1 0.0
18/02:00am ESE 19 22 - - - - 10 Partly cloudy - 22.2 1017.2 0.0
18/01:31am ESE 19 21 - - - - 10 Partly cloudy - 22.1 1017.5 0.0
18/01:30am ESE 18 21 - - - - 10 Partly cloudy - 22.2 1017.6 0.0
18/01:00am ESE 19 22 - - - - 10 Partly cloudy - 22.3 1017.9 0.0
18/12:50am ESE 17 20 - - - - 10 Partly cloudy - 22.4 1018.1 0.0
18/12:30am ESE 17 19 - - - - 10 Partly cloudy - 22.4 1018.3 0.0
18/12:00am ESE 17 19 - - - - 10 Cloudy - 22.3 1018.5 0.0
 
Date/Time
EST
Wind Sea
Height
m
Swell Vis
km
Cloud Weather Temp
°C
Press
hPa
Rain since
9am
mm
Dir  Spd
kts
Gust
kts
Height
m
Period
s
Dir
17/11:30pm ESE 17 20 - - - - 10 Partly cloudy - 22.3 1018.5 0.0
17/11:04pm ESE 17 19 - - - - 10 Partly cloudy - 22.4 1018.4 0.0
17/11:00pm ESE 17 20 - - - - 10 Partly cloudy - 22.4 1018.3 0.0
17/10:45pm ESE 17 20 - - - - 10 Partly cloudy - 22.3 1018.2 0.0
17/10:36pm ESE 17 20 - - - - 10 Partly cloudy - 22.3 1018.3 0.0
17/10:30pm ESE 18 21 - - - - 10 Partly cloudy - 22.3 1018.2 0.0
17/10:00pm ESE 18 21 - - - - 10 Partly cloudy - 22.2 1018.2 0.0
17/09:43pm ESE 18 20 - - - - 10 Partly cloudy - 22.3 1018.3 0.0
17/09:30pm ESE 18 21 - - - - 10 Partly cloudy - 22.4 1018.3 0.0
17/09:00pm ESE 19 21 - - - - 10 Mostly clear - 22.3 1018.1 0.0
17/08:31pm ESE 20 22 - - - - 10 Partly cloudy - 22.5 1018.0 0.0
17/08:30pm ESE 20 22 - - - - 10 Partly cloudy - 22.6 1018.0 0.0
17/08:10pm ESE 18 21 - - - - 10 Partly cloudy - 22.3 1017.8 0.0
17/08:04pm ESE 19 22 - - - - 10 Partly cloudy - 22.5 1017.8 0.0
17/08:00pm ESE 19 23 - - - - 10 Partly cloudy - 22.3 1017.8 0.0
17/07:46pm ESE 17 22 - - - - 10 Partly cloudy - 22.5 1017.6 0.0
17/07:30pm ESE 17 19 - - - - 10 Partly cloudy - 22.2 1017.4 0.0
17/07:00pm ESE 16 19 - - - - 10 Partly cloudy - 22.0 1016.9 0.0
17/06:53pm ESE 17 19 - - - - 10 Partly cloudy - 22.2 1016.9 0.0
17/06:30pm ESE 17 20 - - - - 10 Partly cloudy - 22.0 1016.6 0.0
17/06:26pm ESE 17 21 - - - - 10 Partly cloudy - 22.0 1016.5 0.0
17/06:00pm ESE 16 19 - - - - 10 Partly cloudy - 22.1 1016.2 0.0
17/05:30pm ESE 17 20 - - - - 10 Partly cloudy - 22.2 1015.9 0.0
17/05:25pm ESE 17 21 - - - - 10 Partly cloudy - 22.3 1016.0 0.0
17/05:11pm ESE 18 22 - - - - 10 Partly cloudy - 22.4 1015.9 0.0
17/05:00pm ESE 18 22 - - - - 10 Partly cloudy - 22.3 1015.8 0.0
17/04:30pm ESE 19 21 - - - - 10 - - 22.6 1015.5 0.0
17/04:00pm ESE 19 22 - - - - 10 Partly cloudy - 22.7 1015.3 0.0
17/03:48pm ESE 20 22 - - - - 10 Partly cloudy - 22.8 1015.2 0.0
17/03:30pm SE 17 20 - - - - 10 Partly cloudy - 23.1 1015.2 0.0
17/03:28pm SE 17 19 - - - - 10 Partly cloudy - 23.5 1015.2 0.0
17/03:00pm SE 18 20 - - - - 10 - - 23.5 1015.2 0.0
17/02:30pm SE 16 19 - - - - 10 - - 24.1 1015.4 0.0
17/02:00pm SE 17 19 - - - - 10 - - 23.9 1015.6 0.0
17/01:30pm SE 17 20 - - - - 10 - - 24.1 1015.9 0.0
17/01:00pm SE 18 21 - - - - 10 - - 24.1 1016.2 0.0
17/12:30pm SE 18 19 - - - - 10 Partly cloudy - 24.2 1016.5 0.0
17/12:00pm SE 19 21 - - - - 10 Partly cloudy - 23.4 1016.8 0.0
17/11:30am SE 19 22 - - - - 10 Partly cloudy - 24.0 1017.2 0.0
17/11:00am SSE 21 24 - - - - 10 Partly cloudy - 22.8 1017.5 0.0
17/10:30am SSE 21 24 - - - - 10 Partly cloudy - 23.0 1017.7 0.0

Other Formats:

Comma delimited format used in spreadsheet applications
http://www.bom.gov.au/fwo/IDQ60701/IDQ60701.94368.axf

JavaScript Object Notation format (JSON) in row-major order
http://www.bom.gov.au/fwo/IDQ60701/IDQ60701.94368.json